MST,Max TemperatureF,Mean TemperatureF,Min TemperatureF,Max Dew PointF,MeanDew PointF,Min DewpointF,Max Humidity, Mean Humidity, Min Humidity, Max Sea Level PressureIn, Mean Sea Level PressureIn, Min Sea Level PressureIn, Max VisibilityMiles, Mean VisibilityMiles, Min VisibilityMiles, Max Wind SpeedMPH, Mean Wind SpeedMPH, Max Gust SpeedMPH,PrecipitationIn, CloudCover, Events, WindDirDegrees
2013-2-1,64,46,27,18,14,11,50,32,14,30.22,30.16,30.08,10,10,10,15,4,16,0.00,1,,349
2013-2-2,68,50,31,16,13,10,43,27,11,30.27,30.21,30.15,10,10,10,16,5,21,0.00,3,,18
2013-2-3,63,51,38,30,17,12,41,29,16,30.24,30.02,29.86,10,10,10,17,4,21,0.00,7,,347
2013-2-4,65,55,45,32,30,27,50,39,28,30.01,29.90,29.84,10,10,10,18,7,23,0.00,5,,295
2013-2-5,67,52,37,30,26,21,64,42,20,30.08,29.93,29.85,10,10,10,16,4,20,0.00,1,,179
2013-2-6,68,54,39,29,27,22,55,36,17,29.89,29.84,29.78,10,10,10,21,8,28,0.00,3,,256
2013-2-7,65,56,46,31,25,18,53,36,19,30.02,29.96,29.88,10,10,10,12,5,15,0.00,1,,128
2013-2-8,70,56,42,28,22,7,49,30,11,30.02,29.87,29.71,10,10,10,18,8,25,0.00,5,,126
2013-2-9,64,53,41,21,15,8,40,26,12,29.86,29.70,29.60,10,8,1,40,17,52,0.00,3,,259
2013-2-10,54,45,36,17,12,7,44,30,15,29.96,29.89,29.82,10,10,10,22,8,31,0.00,2,,257
2013-2-11,60,44,27,28,11,6,40,27,13,29.96,29.87,29.79,10,10,10,22,7,30,T,2,,299
2013-2-12,52,42,31,33,15,1,76,45,13,30.10,30.01,29.89,10,10,8,26,11,32,0.01,2,Rain,305
2013-2-13,55,40,24,11,8,6,46,31,15,30.14,30.06,29.98,10,10,10,15,6,17,0.00,0,,251
2013-2-14,61,43,25,14,10,3,37,26,15,30.09,30.02,29.93,10,10,10,15,5,20,0.00,0,,355
2013-2-15,56,47,37,27,22,11,59,43,27,30.30,30.21,30.08,10,10,10,16,5,21,0.00,4,,54
2013-2-16,61,45,29,22,14,8,63,38,12,30.38,30.24,30.08,10,10,10,10,2,15,0.00,0,,181
2013-2-17,69,48,27,9,6,0,39,23,6,30.07,29.89,29.73,10,10,10,30,9,37,0.00,1,,248
2013-2-18,64,57,49,10,5,0,17,13,8,29.96,29.88,29.75,10,10,10,28,12,39,0.00,3,,267
2013-2-19,59,48,37,46,25,3,93,54,14,29.94,29.87,29.73,10,10,7,23,6,29,0.40,6,Rain,165
2013-2-20,61,49,37,42,28,18,96,58,19,29.72,29.60,29.45,10,7,1,47,15,60,T,3,Rain-Snow,254
2013-2-21,51,42,33,25,21,19,64,47,29,29.92,29.83,29.70,10,10,10,48,19,60,0.00,1,,267
2013-2-22,55,44,33,24,22,16,69,46,22,29.99,29.92,29.86,10,10,10,25,11,44,0.00,1,,222
2013-2-23,58,45,32,23,17,12,56,38,19,30.03,29.88,29.69,10,10,10,22,7,29,0.00,0,,196
2013-2-24,63,49,35,22,15,5,52,33,13,29.83,29.66,29.45,10,7,0,47,20,61,0.00,1,,260
2013-2-25,53,43,32,16,10,5,47,32,16,30.04,29.95,29.82,10,10,10,24,10,31,0.00,1,,280
2013-2-26,65,51,37,11,4,-5,32,19,6,29.96,29.83,29.70,10,9,5,33,14,43,0.00,1,,242
2013-2-27,55,44,33,12,3,-3,29,20,11,30.21,30.12,29.99,10,10,10,18,7,23,0.00,2,,30
2013-2-28,57,45,32,16,10,3,47,31,14,30.26,30.20,30.16,10,10,10,12,4,14,0.00,0,,349